sensor_id;sensor_type;location;lat;lon;timestamp;pressure;altitude;pressure_sealevel;temperature;humidity
56196;BME280;42108;49.076;19.294;2022-07-22T00:01:07;95784.66;;;17.39;84.05
56196;BME280;42108;49.076;19.294;2022-07-22T00:03:08;95774.84;;;17.34;84.20
56196;BME280;42108;49.076;19.294;2022-07-22T00:05:09;95783.28;;;17.28;85.38
56196;BME280;42108;49.076;19.294;2022-07-22T00:07:11;95781.22;;;17.25;84.96
56196;BME280;42108;49.076;19.294;2022-07-22T00:09:13;95782.31;;;17.23;85.51
56196;BME280;42108;49.076;19.294;2022-07-22T00:11:14;95776.78;;;17.20;85.93
56196;BME280;42108;49.076;19.294;2022-07-22T00:13:15;95782.53;;;17.13;87.76
56196;BME280;42108;49.076;19.294;2022-07-22T00:15:16;95782.91;;;17.07;88.29
56196;BME280;42108;49.076;19.294;2022-07-22T00:17:17;95769.66;;;17.01;88.07
56196;BME280;42108;49.076;19.294;2022-07-22T00:19:18;95772.66;;;17.00;87.54
56196;BME280;42108;49.076;19.294;2022-07-22T00:21:19;95771.03;;;16.99;87.00
56196;BME280;42108;49.076;19.294;2022-07-22T00:23:20;95776.41;;;16.99;86.45
56196;BME280;42108;49.076;19.294;2022-07-22T00:25:22;95782.53;;;16.99;89.78
56196;BME280;42108;49.076;19.294;2022-07-22T00:27:23;95774.81;;;16.98;87.87
56196;BME280;42108;49.076;19.294;2022-07-22T00:29:24;95782.03;;;16.97;89.79
56196;BME280;42108;49.076;19.294;2022-07-22T00:31:25;95777.00;;;16.96;88.34
56196;BME280;42108;49.076;19.294;2022-07-22T00:33:26;95773.03;;;16.93;89.29
56196;BME280;42108;49.076;19.294;2022-07-22T00:35:27;95776.00;;;16.92;87.73
56196;BME280;42108;49.076;19.294;2022-07-22T00:37:28;95772.66;;;16.86;90.75
56196;BME280;42108;49.076;19.294;2022-07-22T00:39:29;95778.56;;;16.83;89.57
56196;BME280;42108;49.076;19.294;2022-07-22T00:41:30;95772.66;;;16.86;88.90
56196;BME280;42108;49.076;19.294;2022-07-22T00:44:03;95782.84;;;16.84;89.35
56196;BME280;42108;49.076;19.294;2022-07-22T00:46:04;95781.56;;;16.82;89.48
56196;BME280;42108;49.076;19.294;2022-07-22T00:48:05;95780.78;;;16.81;88.60
56196;BME280;42108;49.076;19.294;2022-07-22T00:50:07;95780.28;;;16.79;89.83
56196;BME280;42108;49.076;19.294;2022-07-22T00:52:08;95777.06;;;16.77;89.00
56196;BME280;42108;49.076;19.294;2022-07-22T00:54:09;95775.19;;;16.77;88.77
56196;BME280;42108;49.076;19.294;2022-07-22T00:56:11;95778.66;;;16.78;88.22
56196;BME280;42108;49.076;19.294;2022-07-22T00:58:12;95784.84;;;16.78;88.40
56196;BME280;42108;49.076;19.294;2022-07-22T01:00:17;95777.59;;;16.79;88.68
56196;BME280;42108;49.076;19.294;2022-07-22T01:02:19;95779.75;;;16.77;90.58
56196;BME280;42108;49.076;19.294;2022-07-22T01:04:20;95769.16;;;16.72;89.17
56196;BME280;42108;49.076;19.294;2022-07-22T01:06:21;95780.91;;;16.71;90.38
56196;BME280;42108;49.076;19.294;2022-07-22T01:08:23;95780.41;;;16.69;89.76
56196;BME280;42108;49.076;19.294;2022-07-22T01:10:24;95782.63;;;16.67;89.25
56196;BME280;42108;49.076;19.294;2022-07-22T01:12:25;95789.03;;;16.66;89.79
56196;BME280;42108;49.076;19.294;2022-07-22T01:14:27;95779.72;;;16.63;89.28
56196;BME280;42108;49.076;19.294;2022-07-22T01:16:28;95783.00;;;16.60;90.16
56196;BME280;42108;49.076;19.294;2022-07-22T01:18:30;95784.91;;;16.59;90.89
56196;BME280;42108;49.076;19.294;2022-07-22T01:20:31;95776.88;;;16.59;90.76
56196;BME280;42108;49.076;19.294;2022-07-22T01:22:32;95784.41;;;16.57;90.88
56196;BME280;42108;49.076;19.294;2022-07-22T01:24:33;95790.03;;;16.56;90.45
56196;BME280;42108;49.076;19.294;2022-07-22T01:26:34;95778.84;;;16.54;89.52
56196;BME280;42108;49.076;19.294;2022-07-22T01:28:35;95778.03;;;16.53;89.73
56196;BME280;42108;49.076;19.294;2022-07-22T01:30:36;95782.38;;;16.49;90.40
56196;BME280;42108;49.076;19.294;2022-07-22T01:32:37;95783.28;;;16.45;91.16
56196;BME280;42108;49.076;19.294;2022-07-22T01:34:38;95785.25;;;16.39;91.50
56196;BME280;42108;49.076;19.294;2022-07-22T01:36:39;95785.06;;;16.35;92.56
56196;BME280;42108;49.076;19.294;2022-07-22T01:38:40;95777.94;;;16.31;91.69
56196;BME280;42108;49.076;19.294;2022-07-22T01:40:43;95778.72;;;16.31;92.24
56196;BME280;42108;49.076;19.294;2022-07-22T01:42:44;95773.97;;;16.28;92.63
56196;BME280;42108;49.076;19.294;2022-07-22T01:44:45;95778.81;;;16.26;93.07
56196;BME280;42108;49.076;19.294;2022-07-22T01:46:46;95775.91;;;16.23;94.52
56196;BME280;42108;49.076;19.294;2022-07-22T01:48:47;95776.00;;;16.17;93.91
56196;BME280;42108;49.076;19.294;2022-07-22T01:50:49;95775.50;;;16.15;93.45
56196;BME280;42108;49.076;19.294;2022-07-22T01:52:54;95773.16;;;16.14;94.75
56196;BME280;42108;49.076;19.294;2022-07-22T01:54:59;95775.81;;;16.14;94.18
56196;BME280;42108;49.076;19.294;2022-07-22T01:57:00;95772.03;;;16.15;95.39
56196;BME280;42108;49.076;19.294;2022-07-22T01:59:01;95769.97;;;16.12;97.24
56196;BME280;42108;49.076;19.294;2022-07-22T02:01:02;95763.91;;;16.06;95.34
56196;BME280;42108;49.076;19.294;2022-07-22T02:03:04;95769.56;;;16.05;95.58
56196;BME280;42108;49.076;19.294;2022-07-22T02:05:06;95766.97;;;16.00;95.68
56196;BME280;42108;49.076;19.294;2022-07-22T02:07:07;95762.88;;;15.88;95.96
56196;BME280;42108;49.076;19.294;2022-07-22T02:09:09;95761.06;;;15.84;96.94
56196;BME280;42108;49.076;19.294;2022-07-22T02:11:11;95768.38;;;15.78;97.88
56196;BME280;42108;49.076;19.294;2022-07-22T02:13:12;95765.78;;;15.73;98.27
56196;BME280;42108;49.076;19.294;2022-07-22T02:15:13;95762.63;;;15.71;97.85
56196;BME280;42108;49.076;19.294;2022-07-22T02:17:15;95769.03;;;15.70;98.93
56196;BME280;42108;49.076;19.294;2022-07-22T02:19:16;95765.63;;;15.64;100.00
56196;BME280;42108;49.076;19.294;2022-07-22T02:21:17;95764.03;;;15.63;100.00
56196;BME280;42108;49.076;19.294;2022-07-22T02:23:19;95760.56;;;15.63;99.89
56196;BME280;42108;49.076;19.294;2022-07-22T02:25:20;95768.56;;;15.63;100.00
56196;BME280;42108;49.076;19.294;2022-07-22T02:27:21;95772.34;;;15.62;99.52
56196;BME280;42108;49.076;19.294;2022-07-22T02:29:22;95775.28;;;15.60;99.25
56196;BME280;42108;49.076;19.294;2022-07-22T02:31:23;95782.50;;;15.60;99.63
56196;BME280;42108;49.076;19.294;2022-07-22T02:33:24;95780.72;;;15.55;99.85
56196;BME280;42108;49.076;19.294;2022-07-22T02:35:25;95781.28;;;15.52;99.34
56196;BME280;42108;49.076;19.294;2022-07-22T02:37:26;95782.34;;;15.51;100.00
56196;BME280;42108;49.076;19.294;2022-07-22T02:39:27;95773.28;;;15.52;100.00
56196;BME280;42108;49.076;19.294;2022-07-22T02:41:28;95782.59;;;15.55;99.61
56196;BME280;42108;49.076;19.294;2022-07-22T02:43:29;95787.13;;;15.54;99.16
56196;BME280;42108;49.076;19.294;2022-07-22T02:45:30;95783.19;;;15.51;99.46
56196;BME280;42108;49.076;19.294;2022-07-22T02:47:31;95789.84;;;15.49;99.53
56196;BME280;42108;49.076;19.294;2022-07-22T02:49:32;95785.63;;;15.48;98.74
56196;BME280;42108;49.076;19.294;2022-07-22T02:51:33;95790.75;;;15.44;100.00
56196;BME280;42108;49.076;19.294;2022-07-22T02:53:34;95793.97;;;15.41;100.00
56196;BME280;42108;49.076;19.294;2022-07-22T02:55:35;95790.00;;;15.39;100.00
56196;BME280;42108;49.076;19.294;2022-07-22T02:57:36;95787.94;;;15.36;100.00
56196;BME280;42108;49.076;19.294;2022-07-22T02:59:39;95791.97;;;15.33;100.00
56196;BME280;42108;49.076;19.294;2022-07-22T03:01:40;95792.81;;;15.28;100.00
56196;BME280;42108;49.076;19.294;2022-07-22T03:03:42;95794.69;;;15.28;100.00
56196;BME280;42108;49.076;19.294;2022-07-22T03:05:43;95793.41;;;15.25;100.00
56196;BME280;42108;49.076;19.294;2022-07-22T03:07:44;95796.88;;;15.26;100.00
56196;BME280;42108;49.076;19.294;2022-07-22T03:09:45;95799.03;;;15.24;100.00
56196;BME280;42108;49.076;19.294;2022-07-22T03:11:46;95809.19;;;15.22;100.00
56196;BME280;42108;49.076;19.294;2022-07-22T03:13:48;95800.38;;;15.21;100.00
56196;BME280;42108;49.076;19.294;2022-07-22T03:15:49;95800.38;;;15.21;100.00
56196;BME280;42108;49.076;19.294;2022-07-22T03:17:50;95798.56;;;15.17;100.00
56196;BME280;42108;49.076;19.294;2022-07-22T03:19:51;95800.72;;;15.15;100.00
56196;BME280;42108;49.076;19.294;2022-07-22T03:21:52;95802.63;;;15.14;100.00
56196;BME280;42108;49.076;19.294;2022-07-22T03:23:53;95800.47;;;15.16;100.00
56196;BME280;42108;49.076;19.294;2022-07-22T03:25:55;95807.88;;;15.19;100.00
56196;BME280;42108;49.076;19.294;2022-07-22T03:27:58;95812.63;;;15.22;100.00
56196;BME280;42108;49.076;19.294;2022-07-22T03:29:59;95806.22;;;15.23;100.00
56196;BME280;42108;49.076;19.294;2022-07-22T03:32:00;95812.28;;;15.29;100.00
56196;BME280;42108;49.076;19.294;2022-07-22T03:34:01;95807.47;;;15.31;100.00
56196;BME280;42108;49.076;19.294;2022-07-22T03:36:02;95804.00;;;15.30;100.00
56196;BME280;42108;49.076;19.294;2022-07-22T03:38:03;95807.13;;;15.38;100.00
56196;BME280;42108;49.076;19.294;2022-07-22T03:40:05;95800.59;;;15.44;100.00
56196;BME280;42108;49.076;19.294;2022-07-22T03:42:06;95799.53;;;15.45;100.00
56196;BME280;42108;49.076;19.294;2022-07-22T03:44:08;95814.38;;;15.51;100.00
56196;BME280;42108;49.076;19.294;2022-07-22T03:46:09;95810.34;;;15.53;100.00
56196;BME280;42108;49.076;19.294;2022-07-22T03:48:10;95806.03;;;15.58;100.00
56196;BME280;42108;49.076;19.294;2022-07-22T03:50:11;95808.25;;;15.69;100.00
56196;BME280;42108;49.076;19.294;2022-07-22T03:52:12;95808.72;;;15.77;100.00
56196;BME280;42108;49.076;19.294;2022-07-22T03:54:13;95805.38;;;15.85;100.00
56196;BME280;42108;49.076;19.294;2022-07-22T03:56:14;95812.59;;;16.03;100.00
56196;BME280;42108;49.076;19.294;2022-07-22T03:58:17;95808.22;;;16.26;100.00
56196;BME280;42108;49.076;19.294;2022-07-22T04:00:18;95818.94;;;16.54;100.00
56196;BME280;42108;49.076;19.294;2022-07-22T04:02:19;95813.22;;;16.74;99.62
56196;BME280;42108;49.076;19.294;2022-07-22T04:04:20;95816.03;;;16.97;99.49
56196;BME280;42108;49.076;19.294;2022-07-22T04:06:21;95815.03;;;17.20;97.70
56196;BME280;42108;49.076;19.294;2022-07-22T04:08:22;95816.06;;;17.47;96.25
56196;BME280;42108;49.076;19.294;2022-07-22T04:10:23;95819.84;;;17.60;95.05
56196;BME280;42108;49.076;19.294;2022-07-22T04:12:24;95815.63;;;17.68;94.45
56196;BME280;42108;49.076;19.294;2022-07-22T04:14:25;95819.25;;;17.85;93.65
56196;BME280;42108;49.076;19.294;2022-07-22T04:16:26;95815.13;;;18.02;92.70
56196;BME280;42108;49.076;19.294;2022-07-22T04:18:30;95824.13;;;18.28;90.54
56196;BME280;42108;49.076;19.294;2022-07-22T04:20:31;95823.16;;;18.47;89.54
56196;BME280;42108;49.076;19.294;2022-07-22T04:22:32;95818.75;;;18.51;88.77
56196;BME280;42108;49.076;19.294;2022-07-22T04:24:33;95825.63;;;18.66;85.89
56196;BME280;42108;49.076;19.294;2022-07-22T04:26:34;95820.34;;;18.83;84.69
56196;BME280;42108;49.076;19.294;2022-07-22T04:28:37;95816.63;;;19.02;83.97
56196;BME280;42108;49.076;19.294;2022-07-22T04:30:38;95828.53;;;19.27;83.40
56196;BME280;42108;49.076;19.294;2022-07-22T04:32:39;95823.69;;;19.46;79.63
56196;BME280;42108;49.076;19.294;2022-07-22T04:34:40;95831.50;;;19.74;80.26
56196;BME280;42108;49.076;19.294;2022-07-22T04:36:42;95824.88;;;19.97;78.58
56196;BME280;42108;49.076;19.294;2022-07-22T04:38:43;95823.59;;;20.21;76.93
56196;BME280;42108;49.076;19.294;2022-07-22T04:40:45;95827.63;;;20.45;75.74
56196;BME280;42108;49.076;19.294;2022-07-22T04:42:46;95828.59;;;20.57;73.16
56196;BME280;42108;49.076;19.294;2022-07-22T04:44:47;95825.09;;;20.66;71.27
56196;BME280;42108;49.076;19.294;2022-07-22T04:46:49;95829.69;;;20.65;70.54
56196;BME280;42108;49.076;19.294;2022-07-22T04:48:50;95830.88;;;20.85;69.89
56196;BME280;42108;49.076;19.294;2022-07-22T04:50:51;95830.81;;;21.02;69.56
56196;BME280;42108;49.076;19.294;2022-07-22T04:52:52;95828.44;;;21.01;69.74
56196;BME280;42108;49.076;19.294;2022-07-22T04:54:53;95830.56;;;21.16;69.60
56196;BME280;42108;49.076;19.294;2022-07-22T04:56:54;95825.19;;;21.16;67.04
56196;BME280;42108;49.076;19.294;2022-07-22T04:58:55;95824.56;;;21.19;67.02
56196;BME280;42108;49.076;19.294;2022-07-22T05:00:56;95818.97;;;21.24;65.18
56196;BME280;42108;49.076;19.294;2022-07-22T05:02:59;95824.28;;;21.42;65.81
56196;BME280;42108;49.076;19.294;2022-07-22T05:05:00;95827.91;;;21.46;63.61
56196;BME280;42108;49.076;19.294;2022-07-22T05:07:01;95823.63;;;21.45;63.72
56196;BME280;42108;49.076;19.294;2022-07-22T05:09:03;95823.53;;;21.62;63.23
56196;BME280;42108;49.076;19.294;2022-07-22T05:11:04;95816.81;;;21.69;62.40
56196;BME280;42108;49.076;19.294;2022-07-22T05:13:05;95820.81;;;21.83;60.46
56196;BME280;42108;49.076;19.294;2022-07-22T05:15:07;95820.50;;;21.43;60.90
56196;BME280;42108;49.076;19.294;2022-07-22T05:17:12;95813.59;;;21.75;61.16
56196;BME280;42108;49.076;19.294;2022-07-22T05:19:13;95818.47;;;21.82;60.29
56196;BME280;42108;49.076;19.294;2022-07-22T05:21:14;95814.81;;;21.86;59.10
56196;BME280;42108;49.076;19.294;2022-07-22T05:23:15;95818.97;;;22.17;59.90
56196;BME280;42108;49.076;19.294;2022-07-22T05:25:16;95823.50;;;22.59;59.54
56196;BME280;42108;49.076;19.294;2022-07-22T05:27:17;95821.31;;;22.85;58.46
56196;BME280;42108;49.076;19.294;2022-07-22T05:29:18;95822.44;;;22.97;56.05
56196;BME280;42108;49.076;19.294;2022-07-22T05:31:19;95820.34;;;23.02;56.49
56196;BME280;42108;49.076;19.294;2022-07-22T05:33:20;95823.09;;;22.93;55.12
56196;BME280;42108;49.076;19.294;2022-07-22T05:35:21;95818.09;;;23.17;57.10
56196;BME280;42108;49.076;19.294;2022-07-22T05:37:22;95821.69;;;23.08;55.09
56196;BME280;42108;49.076;19.294;2022-07-22T05:39:23;95816.06;;;23.13;54.32
56196;BME280;42108;49.076;19.294;2022-07-22T05:41:24;95816.84;;;23.39;53.40
56196;BME280;42108;49.076;19.294;2022-07-22T05:43:25;95823.66;;;23.61;54.37
56196;BME280;42108;49.076;19.294;2022-07-22T05:45:26;95825.13;;;23.58;53.44
56196;BME280;42108;49.076;19.294;2022-07-22T05:47:27;95828.16;;;23.69;53.22
56196;BME280;42108;49.076;19.294;2022-07-22T05:49:28;95824.78;;;23.72;52.98
56196;BME280;42108;49.076;19.294;2022-07-22T05:51:29;95817.28;;;23.41;52.42
56196;BME280;42108;49.076;19.294;2022-07-22T05:53:30;95824.13;;;23.50;52.33
56196;BME280;42108;49.076;19.294;2022-07-22T05:55:31;95822.66;;;23.65;55.04
56196;BME280;42108;49.076;19.294;2022-07-22T05:57:32;95821.16;;;23.68;53.41
56196;BME280;42108;49.076;19.294;2022-07-22T05:59:33;95823.13;;;23.55;54.61
56196;BME280;42108;49.076;19.294;2022-07-22T06:01:34;95816.59;;;23.56;52.73
56196;BME280;42108;49.076;19.294;2022-07-22T06:03:35;95818.81;;;23.78;54.38
56196;BME280;42108;49.076;19.294;2022-07-22T06:05:36;95803.78;;;23.93;52.24
56196;BME280;42108;49.076;19.294;2022-07-22T06:07:37;95814.81;;;24.29;52.79
56196;BME280;42108;49.076;19.294;2022-07-22T06:09:38;95810.44;;;24.52;52.09
56196;BME280;42108;49.076;19.294;2022-07-22T06:11:39;95805.41;;;24.67;50.47
56196;BME280;42108;49.076;19.294;2022-07-22T06:13:40;95801.88;;;24.66;51.41
56196;BME280;42108;49.076;19.294;2022-07-22T06:15:41;95804.97;;;24.96;50.29
56196;BME280;42108;49.076;19.294;2022-07-22T06:17:42;95797.53;;;25.25;49.02
56196;BME280;42108;49.076;19.294;2022-07-22T06:19:43;95795.19;;;25.59;48.71
56196;BME280;42108;49.076;19.294;2022-07-22T06:21:44;95800.34;;;25.83;48.44
56196;BME280;42108;49.076;19.294;2022-07-22T06:23:45;95796.25;;;25.89;46.88
56196;BME280;42108;49.076;19.294;2022-07-22T06:25:46;95798.44;;;25.84;47.29
56196;BME280;42108;49.076;19.294;2022-07-22T06:27:47;95799.09;;;25.97;47.51
56196;BME280;42108;49.076;19.294;2022-07-22T06:29:48;95796.72;;;25.95;47.17
56196;BME280;42108;49.076;19.294;2022-07-22T06:31:49;95799.69;;;25.71;46.04
56196;BME280;42108;49.076;19.294;2022-07-22T06:33:51;95803.41;;;25.62;47.13
56196;BME280;42108;49.076;19.294;2022-07-22T06:35:52;95804.31;;;25.51;45.30
56196;BME280;42108;49.076;19.294;2022-07-22T06:37:53;95806.84;;;25.79;46.39
56196;BME280;42108;49.076;19.294;2022-07-22T06:39:54;95799.38;;;25.56;46.09
56196;BME280;42108;49.076;19.294;2022-07-22T06:41:55;95807.19;;;25.77;46.64
56196;BME280;42108;49.076;19.294;2022-07-22T06:43:56;95798.53;;;25.87;45.14
56196;BME280;42108;49.076;19.294;2022-07-22T06:45:57;95803.16;;;26.26;44.42
56196;BME280;42108;49.076;19.294;2022-07-22T06:47:58;95791.03;;;26.85;44.52
56196;BME280;42108;49.076;19.294;2022-07-22T06:49:59;95787.38;;;27.47;43.31
56196;BME280;42108;49.076;19.294;2022-07-22T06:52:00;95783.13;;;27.79;40.89
56196;BME280;42108;49.076;19.294;2022-07-22T06:54:02;95788.56;;;27.79;42.62
56196;BME280;42108;49.076;19.294;2022-07-22T06:56:03;95781.38;;;27.64;41.68
56196;BME280;42108;49.076;19.294;2022-07-22T06:58:04;95792.69;;;27.66;42.50
56196;BME280;42108;49.076;19.294;2022-07-22T07:00:06;95788.34;;;27.62;41.89
56196;BME280;42108;49.076;19.294;2022-07-22T07:02:11;95787.28;;;28.00;41.49
56196;BME280;42108;49.076;19.294;2022-07-22T07:04:12;95791.97;;;28.37;42.62
56196;BME280;42108;49.076;19.294;2022-07-22T07:06:13;95779.09;;;28.30;40.36
56196;BME280;42108;49.076;19.294;2022-07-22T07:08:14;95782.25;;;28.36;41.02
56196;BME280;42108;49.076;19.294;2022-07-22T07:10:15;95783.91;;;28.85;40.97
56196;BME280;42108;49.076;19.294;2022-07-22T07:12:16;95780.81;;;28.87;40.38
56196;BME280;42108;49.076;19.294;2022-07-22T07:14:17;95777.50;;;29.11;41.03
56196;BME280;42108;49.076;19.294;2022-07-22T07:16:18;95770.84;;;29.05;40.13
56196;BME280;42108;49.076;19.294;2022-07-22T07:18:20;95775.34;;;28.87;40.09
56196;BME280;42108;49.076;19.294;2022-07-22T07:20:22;95775.00;;;28.92;40.54
56196;BME280;42108;49.076;19.294;2022-07-22T07:22:23;95760.28;;;29.00;40.14
56196;BME280;42108;49.076;19.294;2022-07-22T07:24:25;95763.25;;;29.29;40.29
56196;BME280;42108;49.076;19.294;2022-07-22T07:26:26;95764.59;;;29.60;39.69
56196;BME280;42108;49.076;19.294;2022-07-22T07:28:27;95763.00;;;29.55;39.55
56196;BME280;42108;49.076;19.294;2022-07-22T07:30:29;95764.19;;;29.58;39.01
56196;BME280;42108;49.076;19.294;2022-07-22T07:32:30;95764.91;;;29.51;39.74
56196;BME280;42108;49.076;19.294;2022-07-22T07:34:31;95763.09;;;29.70;40.22
56196;BME280;42108;49.076;19.294;2022-07-22T07:36:32;95761.25;;;29.92;39.57
56196;BME280;42108;49.076;19.294;2022-07-22T07:38:33;95752.22;;;29.77;39.46
56196;BME280;42108;49.076;19.294;2022-07-22T07:40:35;95753.47;;;30.01;39.47
56196;BME280;42108;49.076;19.294;2022-07-22T07:42:36;95751.16;;;30.03;39.61
56196;BME280;42108;49.076;19.294;2022-07-22T07:44:38;95755.06;;;30.16;39.08
56196;BME280;42108;49.076;19.294;2022-07-22T07:46:39;95745.41;;;30.40;38.07
56196;BME280;42108;49.076;19.294;2022-07-22T07:48:40;95750.13;;;30.43;37.97
56196;BME280;42108;49.076;19.294;2022-07-22T07:50:41;95739.94;;;30.47;37.43
56196;BME280;42108;49.076;19.294;2022-07-22T07:52:44;95744.25;;;30.52;37.46
56196;BME280;42108;49.076;19.294;2022-07-22T07:54:47;95731.75;;;30.55;37.77
56196;BME280;42108;49.076;19.294;2022-07-22T07:56:49;95734.50;;;30.62;37.49
56196;BME280;42108;49.076;19.294;2022-07-22T07:58:50;95734.16;;;30.99;36.82
56196;BME280;42108;49.076;19.294;2022-07-22T08:00:51;95738.41;;;31.22;36.37
56196;BME280;42108;49.076;19.294;2022-07-22T08:02:52;95730.97;;;31.47;37.11
56196;BME280;42108;49.076;19.294;2022-07-22T08:04:53;95734.50;;;31.44;36.13
56196;BME280;42108;49.076;19.294;2022-07-22T08:06:54;95728.97;;;31.58;36.47
56196;BME280;42108;49.076;19.294;2022-07-22T08:08:55;95732.03;;;31.78;36.34
56196;BME280;42108;49.076;19.294;2022-07-22T08:10:56;95730.00;;;31.93;35.48
56196;BME280;42108;49.076;19.294;2022-07-22T08:12:58;95725.72;;;31.92;36.37
56196;BME280;42108;49.076;19.294;2022-07-22T08:14:59;95727.22;;;32.11;35.75
56196;BME280;42108;49.076;19.294;2022-07-22T08:17:01;95723.22;;;32.27;34.62
56196;BME280;42108;49.076;19.294;2022-07-22T08:19:02;95731.38;;;32.34;34.71
56196;BME280;42108;49.076;19.294;2022-07-22T08:21:03;95728.28;;;32.28;34.34
56196;BME280;42108;49.076;19.294;2022-07-22T08:23:04;95720.75;;;32.43;35.23
56196;BME280;42108;49.076;19.294;2022-07-22T08:25:06;95716.69;;;32.69;34.20
56196;BME280;42108;49.076;19.294;2022-07-22T08:27:07;95718.22;;;32.74;34.84
56196;BME280;42108;49.076;19.294;2022-07-22T08:29:08;95722.59;;;32.64;34.27
56196;BME280;42108;49.076;19.294;2022-07-22T08:31:10;95712.50;;;32.50;34.75
56196;BME280;42108;49.076;19.294;2022-07-22T08:33:12;95719.13;;;32.49;34.51
56196;BME280;42108;49.076;19.294;2022-07-22T08:35:13;95709.16;;;32.77;34.47
56196;BME280;42108;49.076;19.294;2022-07-22T08:37:14;95705.66;;;32.73;34.36
56196;BME280;42108;49.076;19.294;2022-07-22T08:39:15;95714.44;;;32.53;34.24
56196;BME280;42108;49.076;19.294;2022-07-22T08:41:17;95707.81;;;32.43;35.09
56196;BME280;42108;49.076;19.294;2022-07-22T08:43:19;95712.72;;;32.74;34.38
56196;BME280;42108;49.076;19.294;2022-07-22T08:45:20;95709.09;;;32.88;35.08
56196;BME280;42108;49.076;19.294;2022-07-22T08:47:23;95703.22;;;32.86;33.67
56196;BME280;42108;49.076;19.294;2022-07-22T08:49:24;95707.25;;;32.70;34.51
56196;BME280;42108;49.076;19.294;2022-07-22T08:51:26;95704.06;;;32.79;34.24
56196;BME280;42108;49.076;19.294;2022-07-22T08:53:29;95707.50;;;32.90;35.14
56196;BME280;42108;49.076;19.294;2022-07-22T08:55:30;95700.25;;;33.14;35.13
56196;BME280;42108;49.076;19.294;2022-07-22T08:57:31;95702.88;;;33.25;34.87
56196;BME280;42108;49.076;19.294;2022-07-22T08:59:32;95701.50;;;33.06;35.25
56196;BME280;42108;49.076;19.294;2022-07-22T09:01:33;95705.16;;;32.89;35.57
56196;BME280;42108;49.076;19.294;2022-07-22T09:03:44;95704.13;;;32.72;35.14
56196;BME280;42108;49.076;19.294;2022-07-22T09:05:45;95701.91;;;32.49;36.11
56196;BME280;42108;49.076;19.294;2022-07-22T09:07:46;95696.47;;;32.41;36.67
56196;BME280;42108;49.076;19.294;2022-07-22T09:09:47;95694.56;;;32.38;36.81
56196;BME280;42108;49.076;19.294;2022-07-22T09:11:49;95692.03;;;32.06;36.75
56196;BME280;42108;49.076;19.294;2022-07-22T09:13:50;95701.03;;;32.07;37.50
56196;BME280;42108;49.076;19.294;2022-07-22T09:15:54;95695.53;;;32.07;37.04
56196;BME280;42108;49.076;19.294;2022-07-22T09:17:56;95698.66;;;32.09;37.10
56196;BME280;42108;49.076;19.294;2022-07-22T09:19:59;95688.44;;;32.16;36.77
56196;BME280;42108;49.076;19.294;2022-07-22T09:22:00;95688.44;;;32.13;36.46
56196;BME280;42108;49.076;19.294;2022-07-22T09:24:01;95695.75;;;32.34;36.35
56196;BME280;42108;49.076;19.294;2022-07-22T09:26:02;95692.06;;;32.58;35.69
56196;BME280;42108;49.076;19.294;2022-07-22T09:30:12;95688.56;;;33.03;35.63
56196;BME280;42108;49.076;19.294;2022-07-22T09:32:13;95703.56;;;32.91;34.36
56196;BME280;42108;49.076;19.294;2022-07-22T09:34:26;95709.44;;;32.37;35.18
56196;BME280;42108;49.076;19.294;2022-07-22T09:36:28;95696.19;;;32.25;35.44
56196;BME280;42108;49.076;19.294;2022-07-22T09:38:29;95690.00;;;32.17;35.79
56196;BME280;42108;49.076;19.294;2022-07-22T09:40:34;95682.94;;;32.20;35.62
56196;BME280;42108;49.076;19.294;2022-07-22T09:42:49;95695.03;;;32.22;36.00
56196;BME280;42108;49.076;19.294;2022-07-22T09:44:50;95692.31;;;32.22;34.81
56196;BME280;42108;49.076;19.294;2022-07-22T09:46:51;95680.53;;;32.29;35.44
56196;BME280;42108;49.076;19.294;2022-07-22T09:48:52;95698.88;;;32.32;35.51
56196;BME280;42108;49.076;19.294;2022-07-22T09:50:56;95689.59;;;32.19;36.16
56196;BME280;42108;49.076;19.294;2022-07-22T09:52:58;95692.34;;;32.19;36.39
56196;BME280;42108;49.076;19.294;2022-07-22T09:55:00;95685.78;;;31.98;36.47
56196;BME280;42108;49.076;19.294;2022-07-22T09:57:02;95688.56;;;31.88;36.45
56196;BME280;42108;49.076;19.294;2022-07-22T09:59:03;95679.50;;;32.05;36.89
56196;BME280;42108;49.076;19.294;2022-07-22T10:01:04;95684.78;;;32.37;35.09
56196;BME280;42108;49.076;19.294;2022-07-22T10:03:12;95687.44;;;32.48;34.34
56196;BME280;42108;49.076;19.294;2022-07-22T10:05:20;95679.97;;;32.56;35.05
56196;BME280;42108;49.076;19.294;2022-07-22T10:07:23;95674.75;;;32.72;34.50
56196;BME280;42108;49.076;19.294;2022-07-22T10:09:24;95675.13;;;32.71;34.11
56196;BME280;42108;49.076;19.294;2022-07-22T10:11:26;95674.41;;;32.63;34.68
56196;BME280;42108;49.076;19.294;2022-07-22T10:13:27;95677.84;;;32.74;34.36
56196;BME280;42108;49.076;19.294;2022-07-22T10:15:30;95670.44;;;32.71;33.69
56196;BME280;42108;49.076;19.294;2022-07-22T10:17:31;95672.63;;;32.91;33.76
56196;BME280;42108;49.076;19.294;2022-07-22T10:19:34;95663.00;;;33.13;33.57
56196;BME280;42108;49.076;19.294;2022-07-22T10:21:35;95666.13;;;33.15;34.06
56196;BME280;42108;49.076;19.294;2022-07-22T10:26:09;95658.44;;;33.37;32.38
56196;BME280;42108;49.076;19.294;2022-07-22T10:28:20;95662.09;;;33.27;33.07
56196;BME280;42108;49.076;19.294;2022-07-22T10:30:28;95659.19;;;33.38;31.72
56196;BME280;42108;49.076;19.294;2022-07-22T10:32:29;95657.41;;;33.62;32.21
56196;BME280;42108;49.076;19.294;2022-07-22T10:34:30;95664.06;;;33.61;31.57
56196;BME280;42108;49.076;19.294;2022-07-22T10:36:36;95658.22;;;33.59;30.38
56196;BME280;42108;49.076;19.294;2022-07-22T10:38:38;95659.47;;;33.51;30.36